Time;durP1;ratioP1;P1;durP2;ratioP2;P2;SDS_P1;SDS_P2;PMS_P1;PMS_P2;Temp;Humidity;BMP_temperature;BMP_pressure;BME280_temperature;BME280_humidity;BME280_pressure;Samples;Min_cycle;Max_cycle;Signal;HPM_P1;HPM_P2
2023/12/03 00:00:17;;;;;;;11.43;6.05;;;;;;;;;;5014466;28;20132;-61
2023/12/03 00:02:43;;;;;;;12.35;5.75;;;;;;;;;;5012881;28;20079;-60
2023/12/03 00:05:09;;;;;;;11.98;6.70;;;;;;;;;;5015128;28;20033;-60
2023/12/03 00:07:36;;;;;;;15.15;6.70;;;;;;;;;;5014098;28;20053;-60
2023/12/03 00:10:02;;;;;;;14.40;7.22;;;;;;;;;;5013546;28;20884;-60
2023/12/03 00:12:29;;;;;;;11.55;6.30;;;;;;;;;;5015270;28;20033;-60
2023/12/03 00:14:55;;;;;;;11.18;5.97;;;;;;;;;;5013536;28;20658;-60
2023/12/03 00:17:21;;;;;;;13.50;6.60;;;;;;;;;;5014201;28;20075;-60
2023/12/03 00:19:48;;;;;;;13.07;6.18;;;;;;;;;;5014140;28;20035;-60
2023/12/03 00:22:14;;;;;;;13.60;6.47;;;;;;;;;;5013781;28;20128;-60
2023/12/03 00:24:40;;;;;;;11.85;5.70;;;;;;;;;;5013189;28;20115;-60
2023/12/03 00:27:07;;;;;;;11.77;5.85;;;;;;;;;;5014349;28;20056;-60
2023/12/03 00:29:33;;;;;;;10.10;5.60;;;;;;;;;;5014744;28;20045;-60
2023/12/03 00:31:59;;;;;;;16.75;7.78;;;;;;;;;;5013272;28;20037;-60
2023/12/03 00:34:25;;;;;;;8.77;4.40;;;;;;;;;;5013268;28;20092;-60
2023/12/03 00:36:51;;;;;;;9.75;5.03;;;;;;;;;;5013653;28;20041;-60
2023/12/03 00:39:17;;;;;;;8.98;4.13;;;;;;;;;;5014030;28;20044;-60
2023/12/03 00:41:43;;;;;;;8.80;4.07;;;;;;;;;;5012342;28;20075;-61
2023/12/03 00:44:09;;;;;;;8.48;4.30;;;;;;;;;;5012604;28;20040;-60
2023/12/03 00:46:35;;;;;;;8.70;3.83;;;;;;;;;;5012078;28;20041;-60
2023/12/03 00:49:01;;;;;;;11.82;4.80;;;;;;;;;;5012866;28;20242;-60
2023/12/03 00:51:27;;;;;;;8.07;4.25;;;;;;;;;;5013550;28;20084;-60
2023/12/03 00:53:54;;;;;;;10.20;4.95;;;;;;;;;;5012439;28;20041;-60
2023/12/03 00:56:20;;;;;;;9.68;4.72;;;;;;;;;;5011516;28;20042;-60
2023/12/03 00:58:46;;;;;;;8.80;3.60;;;;;;;;;;5012908;28;20049;-60
2023/12/03 01:01:12;;;;;;;8.13;3.75;;;;;;;;;;5013040;28;20064;-60
2023/12/03 01:03:38;;;;;;;6.90;3.00;;;;;;;;;;5012962;28;20037;-61
2023/12/03 01:06:04;;;;;;;6.47;2.88;;;;;;;;;;5012325;28;20126;-60
2023/12/03 01:08:30;;;;;;;5.95;2.83;;;;;;;;;;5012975;28;20409;-60
2023/12/03 01:10:56;;;;;;;5.97;2.67;;;;;;;;;;5012063;28;20033;-60
2023/12/03 01:13:22;;;;;;;7.22;3.17;;;;;;;;;;5012637;28;20068;-60
2023/12/03 01:15:49;;;;;;;6.10;3.30;;;;;;;;;;5011567;28;20029;-60
2023/12/03 01:18:15;;;;;;;8.45;3.53;;;;;;;;;;5013033;28;20049;-60
2023/12/03 01:20:41;;;;;;;7.40;3.65;;;;;;;;;;5013435;28;20042;-60
2023/12/03 01:23:07;;;;;;;8.13;3.15;;;;;;;;;;5012729;28;20037;-61
2023/12/03 01:25:33;;;;;;;7.28;3.67;;;;;;;;;;5012945;28;20512;-60
2023/12/03 01:27:59;;;;;;;8.45;3.58;;;;;;;;;;5012670;28;20028;-60
2023/12/03 01:30:25;;;;;;;9.82;4.00;;;;;;;;;;5012681;28;20091;-60
2023/12/03 01:32:51;;;;;;;6.07;3.20;;;;;;;;;;5013551;28;20033;-60
2023/12/03 01:35:17;;;;;;;7.78;3.50;;;;;;;;;;5012731;28;20037;-60
2023/12/03 01:37:43;;;;;;;7.10;4.03;;;;;;;;;;5012721;28;20045;-60
2023/12/03 01:40:09;;;;;;;6.78;3.22;;;;;;;;;;5012598;28;20055;-60
2023/12/03 01:42:36;;;;;;;5.65;3.00;;;;;;;;;;5011889;28;20118;-60
2023/12/03 01:45:02;;;;;;;8.00;3.25;;;;;;;;;;5013856;28;20038;-60
2023/12/03 01:47:28;;;;;;;6.00;3.05;;;;;;;;;;5013001;28;20841;-60
2023/12/03 01:49:55;;;;;;;6.57;3.05;;;;;;;;;;5012986;28;20120;-60
2023/12/03 01:52:22;;;;;;;5.30;2.50;;;;;;;;;;5011251;28;20041;-60
2023/12/03 01:54:49;;;;;;;7.00;3.00;;;;;;;;;;5011302;28;20045;-61
2023/12/03 01:57:16;;;;;;;5.35;2.92;;;;;;;;;;5011676;28;20033;-61
2023/12/03 01:59:42;;;;;;;5.63;2.90;;;;;;;;;;5011498;28;20026;-60
2023/12/03 02:02:08;;;;;;;5.13;2.40;;;;;;;;;;5012327;28;20495;-60
2023/12/03 02:04:34;;;;;;;6.30;2.33;;;;;;;;;;5011352;28;20045;-60
2023/12/03 02:07:00;;;;;;;5.25;2.55;;;;;;;;;;5012803;28;20037;-61
2023/12/03 02:09:27;;;;;;;5.80;2.53;;;;;;;;;;5008518;28;20095;-60
2023/12/03 02:11:53;;;;;;;4.93;2.40;;;;;;;;;;5012209;28;20140;-60
2023/12/03 02:14:19;;;;;;;5.50;2.65;;;;;;;;;;5012119;28;20981;-60
2023/12/03 02:16:46;;;;;;;5.85;2.63;;;;;;;;;;5011540;28;20049;-60
2023/12/03 02:19:12;;;;;;;4.75;2.55;;;;;;;;;;5012488;28;20058;-59
2023/12/03 02:21:38;;;;;;;5.85;2.42;;;;;;;;;;5010855;28;20036;-58
2023/12/03 02:24:04;;;;;;;3.90;1.90;;;;;;;;;;5012341;28;20033;-59
2023/12/03 02:26:30;;;;;;;5.25;2.17;;;;;;;;;;5008812;28;20803;-58
2023/12/03 02:28:56;;;;;;;5.20;2.22;;;;;;;;;;5011423;28;20052;-58
2023/12/03 02:31:22;;;;;;;4.10;2.08;;;;;;;;;;5011537;28;20033;-58
2023/12/03 02:34:14;;;;;;;7.07;2.70;;;;;;;;;;5009823;28;20038;-58
2023/12/03 02:36:40;;;;;;;5.70;2.17;;;;;;;;;;5010691;28;20045;-58
2023/12/03 02:39:07;;;;;;;5.60;2.55;;;;;;;;;;5012223;28;20061;-61
2023/12/03 02:41:33;;;;;;;4.55;2.22;;;;;;;;;;5009112;28;20038;-60
2023/12/03 02:43:59;;;;;;;6.70;3.00;;;;;;;;;;5011532;28;20399;-61
2023/12/03 02:46:25;;;;;;;7.57;3.92;;;;;;;;;;5011466;28;20045;-61
2023/12/03 02:48:51;;;;;;;7.57;2.63;;;;;;;;;;5010742;28;20056;-61
2023/12/03 02:51:17;;;;;;;6.47;3.30;;;;;;;;;;5010418;28;20033;-61
2023/12/03 02:53:45;;;;;;;6.57;3.00;;;;;;;;;;5011371;28;20037;-61
2023/12/03 02:56:12;;;;;;;6.60;3.17;;;;;;;;;;5010855;28;20039;-60
2023/12/03 02:58:38;;;;;;;6.68;2.90;;;;;;;;;;5010908;28;20118;-61
2023/12/03 03:01:05;;;;;;;5.15;2.50;;;;;;;;;;5011164;28;20043;-61
2023/12/03 03:03:31;;;;;;;5.40;2.50;;;;;;;;;;5010886;28;20080;-60
2023/12/03 03:05:57;;;;;;;5.15;2.50;;;;;;;;;;5011450;28;20107;-61
2023/12/03 03:08:23;;;;;;;6.10;2.58;;;;;;;;;;5010888;28;20033;-61
2023/12/03 03:10:49;;;;;;;6.10;2.28;;;;;;;;;;5011115;28;20056;-61
2023/12/03 03:13:15;;;;;;;3.70;1.90;;;;;;;;;;5009171;28;20025;-61
2023/12/03 03:15:41;;;;;;;5.72;2.50;;;;;;;;;;5010101;28;20060;-61
2023/12/03 03:18:07;;;;;;;4.40;2.08;;;;;;;;;;5009705;28;20111;-61
2023/12/03 03:20:34;;;;;;;5.32;2.30;;;;;;;;;;5010405;28;20866;-61
2023/12/03 03:23:00;;;;;;;6.53;2.45;;;;;;;;;;5011446;28;20049;-61
2023/12/03 03:25:26;;;;;;;4.90;2.08;;;;;;;;;;5009897;28;20037;-61
2023/12/03 03:27:52;;;;;;;4.05;2.20;;;;;;;;;;5011532;28;20037;-61
2023/12/03 03:30:18;;;;;;;5.45;2.55;;;;;;;;;;5009882;28;20061;-61
2023/12/03 03:32:45;;;;;;;5.65;2.10;;;;;;;;;;5010510;28;20037;-61
2023/12/03 03:35:11;;;;;;;5.97;2.85;;;;;;;;;;5011096;28;20975;-61
2023/12/03 03:37:37;;;;;;;5.40;2.00;;;;;;;;;;5010480;28;20061;-61
2023/12/03 03:40:03;;;;;;;5.10;2.30;;;;;;;;;;5010295;28;20026;-61
2023/12/03 03:42:29;;;;;;;6.35;2.55;;;;;;;;;;5009076;28;20112;-61
2023/12/03 03:44:55;;;;;;;5.80;2.42;;;;;;;;;;5009595;28;20124;-61
2023/12/03 03:47:21;;;;;;;5.57;2.47;;;;;;;;;;5009200;28;20037;-61
2023/12/03 03:49:48;;;;;;;4.53;2.20;;;;;;;;;;5009324;28;20033;-61
2023/12/03 03:52:14;;;;;;;4.18;1.90;;;;;;;;;;5009362;28;20087;-61
2023/12/03 03:54:43;;;;;;;5.03;2.08;;;;;;;;;;5010496;28;20095;-61
2023/12/03 03:57:09;;;;;;;4.18;2.10;;;;;;;;;;5010222;28;20041;-61
2023/12/03 03:59:35;;;;;;;4.55;2.00;;;;;;;;;;5010219;28;20029;-61
2023/12/03 04:02:01;;;;;;;3.90;2.00;;;;;;;;;;5010819;28;20033;-61
2023/12/03 04:04:27;;;;;;;4.13;1.80;;;;;;;;;;5010020;28;20127;-61
2023/12/03 04:06:53;;;;;;;5.63;2.50;;;;;;;;;;5010229;28;20042;-61
2023/12/03 04:09:19;;;;;;;4.72;2.33;;;;;;;;;;5009264;28;20049;-61
2023/12/03 04:11:46;;;;;;;5.35;2.58;;;;;;;;;;5008843;28;20040;-61
2023/12/03 04:14:16;;;;;;;5.25;2.58;;;;;;;;;;5009528;28;20038;-61
2023/12/03 04:16:43;;;;;;;5.07;2.30;;;;;;;;;;5009823;28;20056;-61
2023/12/03 04:19:09;;;;;;;4.70;2.10;;;;;;;;;;5011106;28;20041;-61
2023/12/03 04:21:39;;;;;;;4.80;2.30;;;;;;;;;;5009269;28;20124;-61
2023/12/03 04:24:05;;;;;;;5.50;2.25;;;;;;;;;;5010556;28;20032;-61
2023/12/03 04:26:31;;;;;;;4.45;2.20;;;;;;;;;;5010321;28;20061;-61
2023/12/03 04:28:57;;;;;;;5.03;2.72;;;;;;;;;;5014069;28;20037;-62
2023/12/03 04:31:27;;;;;;;5.93;2.88;;;;;;;;;;5015259;28;20045;-62
2023/12/03 04:33:54;;;;;;;6.65;3.40;;;;;;;;;;5014294;28;20602;-61
2023/12/03 04:36:24;;;;;;;5.25;2.33;;;;;;;;;;5014336;28;20045;-61
2023/12/03 04:38:51;;;;;;;8.75;2.85;;;;;;;;;;5013977;28;20810;-61
2023/12/03 04:41:17;;;;;;;5.88;2.95;;;;;;;;;;5013122;28;20045;-61
2023/12/03 04:43:43;;;;;;;5.22;2.65;;;;;;;;;;5013688;28;20041;-61
2023/12/03 04:46:09;;;;;;;9.65;4.20;;;;;;;;;;5013774;28;21024;-62
2023/12/03 04:48:36;;;;;;;15.88;4.15;;;;;;;;;;5014246;28;20041;-61
2023/12/03 04:51:03;;;;;;;18.38;4.63;;;;;;;;;;5013519;28;20603;-61
2023/12/03 04:53:29;;;;;;;28.13;5.95;;;;;;;;;;5012677;28;20044;-61
2023/12/03 04:55:55;;;;;;;25.27;5.50;;;;;;;;;;5012919;28;20037;-61
2023/12/03 04:58:21;;;;;;;31.05;5.20;;;;;;;;;;5013899;28;20037;-61
2023/12/03 05:00:47;;;;;;;23.15;5.72;;;;;;;;;;5013412;28;20044;-61
2023/12/03 05:03:14;;;;;;;18.33;5.00;;;;;;;;;;5012833;28;20038;-61
2023/12/03 05:05:40;;;;;;;19.48;6.80;;;;;;;;;;5013642;28;20068;-61
2023/12/03 05:08:06;;;;;;;16.00;7.00;;;;;;;;;;5013339;28;20029;-61
2023/12/03 05:10:32;;;;;;;17.58;7.15;;;;;;;;;;5011989;28;20555;-61
2023/12/03 05:12:58;;;;;;;23.52;7.47;;;;;;;;;;5012596;28;20990;-61
2023/12/03 05:15:24;;;;;;;29.13;7.68;;;;;;;;;;5012006;28;20153;-62
2023/12/03 05:17:50;;;;;;;39.50;9.00;;;;;;;;;;5014064;28;20131;-61
2023/12/03 05:20:16;;;;;;;66.43;9.82;;;;;;;;;;5012750;28;20037;-61
2023/12/03 05:22:42;;;;;;;80.28;11.70;;;;;;;;;;5012465;28;20115;-61
2023/12/03 05:25:08;;;;;;;113.22;11.57;;;;;;;;;;5000042;28;20047;-61
2023/12/03 05:27:34;;;;;;;106.15;13.07;;;;;;;;;;5013465;28;20657;-61
2023/12/03 05:30:01;;;;;;;107.13;13.80;;;;;;;;;;5013690;28;20037;-61
2023/12/03 05:32:27;;;;;;;76.88;12.65;;;;;;;;;;4999177;28;20041;-61
2023/12/03 05:34:53;;;;;;;135.43;14.30;;;;;;;;;;5013661;28;20029;-61
2023/12/03 05:37:20;;;;;;;102.07;15.02;;;;;;;;;;5011868;28;20040;-61
2023/12/03 05:39:46;;;;;;;82.35;14.35;;;;;;;;;;5013470;28;20029;-61
2023/12/03 05:42:14;;;;;;;136.85;18.35;;;;;;;;;;5010861;28;20912;-61
2023/12/03 05:44:40;;;;;;;126.35;15.93;;;;;;;;;;5012448;28;20646;-61
2023/12/03 05:47:06;;;;;;;109.50;15.10;;;;;;;;;;5012496;28;20038;-61
2023/12/03 05:49:32;;;;;;;113.05;16.30;;;;;;;;;;5012572;28;20061;-61
2023/12/03 05:51:58;;;;;;;128.57;18.10;;;;;;;;;;5013660;28;20037;-61
2023/12/03 05:54:24;;;;;;;137.45;18.58;;;;;;;;;;5011584;28;21250;-61
2023/12/03 05:56:50;;;;;;;146.13;20.42;;;;;;;;;;5013590;28;20977;-61
2023/12/03 05:59:16;;;;;;;190.45;19.92;;;;;;;;;;5012990;28;20037;-61
2023/12/03 06:01:42;;;;;;;98.40;17.77;;;;;;;;;;5011260;28;20037;-61
2023/12/03 06:04:09;;;;;;;162.00;21.48;;;;;;;;;;5011989;28;20034;-61
2023/12/03 06:06:35;;;;;;;149.15;20.33;;;;;;;;;;5011034;28;20481;-61
2023/12/03 06:09:03;;;;;;;88.88;17.33;;;;;;;;;;5013406;28;20703;-61
2023/12/03 06:11:29;;;;;;;156.63;21.52;;;;;;;;;;5011800;28;20733;-61
2023/12/03 06:13:55;;;;;;;168.35;21.50;;;;;;;;;;5011443;28;20575;-61
2023/12/03 06:16:22;;;;;;;151.40;19.08;;;;;;;;;;5011751;28;20188;-61
2023/12/03 06:18:48;;;;;;;129.45;16.65;;;;;;;;;;5011088;28;20033;-61
2023/12/03 06:21:14;;;;;;;167.02;19.90;;;;;;;;;;5012080;28;20055;-61
2023/12/03 06:23:40;;;;;;;176.30;20.67;;;;;;;;;;5011166;28;20036;-61
2023/12/03 06:26:06;;;;;;;173.25;21.42;;;;;;;;;;5012462;28;20037;-61
2023/12/03 06:28:32;;;;;;;78.82;16.40;;;;;;;;;;5009855;28;20041;-61
2023/12/03 06:30:58;;;;;;;74.28;16.42;;;;;;;;;;5010676;28;20060;-61
2023/12/03 06:33:24;;;;;;;150.38;22.73;;;;;;;;;;5010488;28;20052;-61
2023/12/03 06:35:51;;;;;;;167.43;19.35;;;;;;;;;;5010536;28;20069;-61
2023/12/03 06:38:17;;;;;;;155.10;20.55;;;;;;;;;;5012040;28;20033;-61
2023/12/03 06:40:44;;;;;;;173.63;23.45;;;;;;;;;;5010862;28;20075;-61
2023/12/03 06:43:10;;;;;;;164.80;20.90;;;;;;;;;;5010845;28;20037;-61
2023/12/03 06:45:37;;;;;;;135.32;20.02;;;;;;;;;;5010574;28;20797;-60
2023/12/03 06:48:04;;;;;;;126.60;19.38;;;;;;;;;;5011676;28;20064;-61
2023/12/03 06:50:30;;;;;;;149.18;22.33;;;;;;;;;;5011894;28;20053;-60
2023/12/03 06:52:56;;;;;;;107.43;19.00;;;;;;;;;;5010762;28;20037;-60
2023/12/03 06:55:22;;;;;;;135.43;20.05;;;;;;;;;;5011344;28;20041;-60
2023/12/03 06:57:48;;;;;;;129.48;19.08;;;;;;;;;;5009523;28;20044;-61
2023/12/03 07:00:14;;;;;;;83.78;17.20;;;;;;;;;;5012423;28;20042;-61
2023/12/03 07:02:40;;;;;;;114.75;19.35;;;;;;;;;;5011137;28;20032;-61
2023/12/03 07:05:07;;;;;;;71.72;16.70;;;;;;;;;;5011165;28;20032;-60
2023/12/03 07:07:33;;;;;;;85.22;17.20;;;;;;;;;;5009929;28;20095;-61
2023/12/03 07:09:59;;;;;;;125.53;19.75;;;;;;;;;;5011479;28;20037;-60
2023/12/03 07:12:25;;;;;;;113.00;18.45;;;;;;;;;;5010910;28;20188;-60
2023/12/03 07:14:51;;;;;;;111.25;16.95;;;;;;;;;;5010221;28;20127;-60
2023/12/03 07:17:17;;;;;;;92.80;17.75;;;;;;;;;;5010994;28;20065;-60
2023/12/03 07:19:44;;;;;;;55.83;16.02;;;;;;;;;;5011555;28;20045;-60
2023/12/03 07:22:10;;;;;;;91.30;17.08;;;;;;;;;;5009940;28;20153;-60
2023/12/03 07:24:36;;;;;;;92.63;17.73;;;;;;;;;;5010361;28;20075;-60
2023/12/03 07:27:03;;;;;;;72.60;17.27;;;;;;;;;;4999270;28;20127;-60
2023/12/03 07:29:29;;;;;;;67.07;16.00;;;;;;;;;;5011408;28;20530;-60
2023/12/03 07:31:55;;;;;;;55.17;15.55;;;;;;;;;;5010556;28;20037;-60
2023/12/03 07:34:21;;;;;;;30.20;13.57;;;;;;;;;;5012196;28;20041;-60
2023/12/03 07:36:47;;;;;;;42.63;14.25;;;;;;;;;;5011826;28;20099;-60
2023/12/03 07:39:13;;;;;;;36.38;15.13;;;;;;;;;;5012413;28;20103;-60
2023/12/03 07:41:39;;;;;;;49.70;16.42;;;;;;;;;;5010538;28;20035;-60
2023/12/03 07:44:06;;;;;;;37.22;14.75;;;;;;;;;;5011296;28;20575;-60
2023/12/03 07:46:35;;;;;;;64.47;17.30;;;;;;;;;;5011831;28;20918;-60
2023/12/03 07:49:01;;;;;;;66.57;18.00;;;;;;;;;;5009996;28;20067;-60
2023/12/03 07:51:27;;;;;;;47.10;16.27;;;;;;;;;;5011542;28;20522;-60
2023/12/03 07:53:53;;;;;;;59.53;16.52;;;;;;;;;;5010131;28;21534;-60
2023/12/03 07:56:19;;;;;;;75.57;17.30;;;;;;;;;;5010419;28;20560;-60
2023/12/03 07:58:45;;;;;;;67.07;15.80;;;;;;;;;;5009828;28;21803;-60
2023/12/03 08:01:11;;;;;;;74.10;15.90;;;;;;;;;;5009524;28;20041;-60
2023/12/03 08:03:37;;;;;;;114.38;16.90;;;;;;;;;;5011313;28;20029;-60
2023/12/03 08:06:05;;;;;;;68.18;15.38;;;;;;;;;;5012441;28;20037;-60
2023/12/03 08:08:31;;;;;;;56.47;15.13;;;;;;;;;;5015196;28;20042;-60
2023/12/03 08:10:57;;;;;;;49.38;14.07;;;;;;;;;;5013707;28;20055;-60
2023/12/03 08:13:23;;;;;;;68.60;16.25;;;;;;;;;;5011087;28;21776;-60
2023/12/03 08:15:49;;;;;;;58.42;15.23;;;;;;;;;;5012847;28;20049;-61
2023/12/03 08:18:15;;;;;;;53.22;14.25;;;;;;;;;;5010323;28;20065;-60
2023/12/03 08:20:41;;;;;;;54.47;14.48;;;;;;;;;;5012038;28;20047;-60
2023/12/03 08:23:07;;;;;;;36.17;12.68;;;;;;;;;;5013785;28;20033;-60
2023/12/03 08:25:33;;;;;;;38.55;12.85;;;;;;;;;;5011822;28;20037;-60
2023/12/03 08:27:59;;;;;;;33.40;13.02;;;;;;;;;;5012974;28;20042;-60
2023/12/03 08:30:25;;;;;;;38.22;13.40;;;;;;;;;;5014698;28;20137;-60
2023/12/03 08:32:51;;;;;;;36.25;13.00;;;;;;;;;;5012950;28;20041;-60
2023/12/03 08:35:17;;;;;;;43.15;13.27;;;;;;;;;;5013984;28;20151;-60
2023/12/03 08:37:45;;;;;;;42.85;14.25;;;;;;;;;;5013057;28;20037;-60
2023/12/03 08:40:12;;;;;;;34.92;14.40;;;;;;;;;;5014859;28;20564;-60
2023/12/03 08:42:39;;;;;;;31.38;12.35;;;;;;;;;;5012671;28;20792;-60
2023/12/03 08:45:05;;;;;;;35.33;13.18;;;;;;;;;;5013617;28;20025;-60
2023/12/03 08:47:31;;;;;;;48.60;16.52;;;;;;;;;;5012925;28;20086;-60
2023/12/03 08:49:57;;;;;;;37.70;12.95;;;;;;;;;;5013504;28;20037;-60
2023/12/03 08:52:23;;;;;;;41.10;14.70;;;;;;;;;;5013389;28;20052;-60
2023/12/03 08:54:49;;;;;;;44.92;14.70;;;;;;;;;;5012621;28;20075;-60
2023/12/03 08:57:15;;;;;;;36.58;14.90;;;;;;;;;;5014292;28;20054;-60
2023/12/03 08:59:41;;;;;;;41.28;15.35;;;;;;;;;;5014326;28;20125;-60
2023/12/03 09:02:07;;;;;;;34.28;14.60;;;;;;;;;;5012164;28;20076;-60
2023/12/03 09:04:33;;;;;;;38.92;14.85;;;;;;;;;;4999780;28;20200;-60
2023/12/03 09:07:00;;;;;;;47.63;16.42;;;;;;;;;;5012204;28;20049;-60
2023/12/03 09:09:26;;;;;;;39.75;15.10;;;;;;;;;;5012650;28;20185;-60
2023/12/03 09:11:52;;;;;;;48.40;16.88;;;;;;;;;;5011601;28;20064;-60
2023/12/03 09:14:19;;;;;;;44.03;16.15;;;;;;;;;;5013359;28;20049;-59
2023/12/03 09:16:45;;;;;;;51.78;17.13;;;;;;;;;;5008126;28;21001;-60
2023/12/03 09:19:11;;;;;;;45.45;16.77;;;;;;;;;;5012266;28;20531;-60
2023/12/03 09:21:37;;;;;;;40.22;15.25;;;;;;;;;;5011586;28;20115;-60
2023/12/03 09:24:04;;;;;;;44.28;15.27;;;;;;;;;;5012525;28;20099;-60
2023/12/03 09:26:30;;;;;;;51.20;19.50;;;;;;;;;;5011902;28;20041;-60
2023/12/03 09:28:56;;;;;;;40.97;17.10;;;;;;;;;;5011272;28;20045;-60
2023/12/03 09:31:22;;;;;;;40.60;17.80;;;;;;;;;;5011642;28;20033;-60
2023/12/03 09:33:48;;;;;;;45.90;19.30;;;;;;;;;;5009313;28;20045;-60
2023/12/03 09:36:14;;;;;;;41.28;19.25;;;;;;;;;;5013130;28;20041;-60
2023/12/03 09:38:40;;;;;;;43.63;18.77;;;;;;;;;;5009879;28;20138;-59
2023/12/03 09:41:09;;;;;;;47.58;20.27;;;;;;;;;;5012476;28;20037;-60
2023/12/03 09:43:38;;;;;;;42.28;19.35;;;;;;;;;;5008578;28;20025;-60
2023/12/03 09:46:06;;;;;;;47.03;20.92;;;;;;;;;;5009679;28;20389;-60
2023/12/03 09:48:34;;;;;;;42.10;20.05;;;;;;;;;;5011900;28;20030;-60
2023/12/03 09:51:00;;;;;;;43.90;20.35;;;;;;;;;;5010094;28;20045;-60
2023/12/03 09:53:26;;;;;;;39.65;20.33;;;;;;;;;;5010266;28;20044;-60
2023/12/03 09:55:53;;;;;;;41.75;20.13;;;;;;;;;;5010737;28;20064;-59
2023/12/03 09:58:19;;;;;;;43.85;20.40;;;;;;;;;;5011433;28;20044;-59
2023/12/03 10:00:48;;;;;;;42.25;20.90;;;;;;;;;;5009733;28;20099;-60
2023/12/03 10:03:15;;;;;;;41.28;21.70;;;;;;;;;;5008456;28;20558;-60
2023/12/03 10:05:41;;;;;;;40.45;20.35;;;;;;;;;;5009736;28;20065;-60
2023/12/03 10:08:07;;;;;;;37.17;18.80;;;;;;;;;;5011722;28;21835;-60
2023/12/03 10:10:35;;;;;;;36.67;20.05;;;;;;;;;;5009868;28;20140;-60
2023/12/03 10:13:02;;;;;;;38.83;19.40;;;;;;;;;;5011534;28;20032;-60
2023/12/03 10:15:28;;;;;;;37.40;20.10;;;;;;;;;;5006578;28;20048;-60
2023/12/03 10:17:54;;;;;;;38.72;20.30;;;;;;;;;;5008864;28;20045;-61
2023/12/03 10:20:24;;;;;;;37.63;20.40;;;;;;;;;;5009038;28;20033;-60
2023/12/03 10:22:51;;;;;;;34.47;20.00;;;;;;;;;;5010522;28;20025;-60
2023/12/03 10:25:33;;;;;;;31.90;18.00;;;;;;;;;;5009739;28;20037;-60
2023/12/03 10:28:09;;;;;;;37.53;20.55;;;;;;;;;;5009657;28;20033;-60
2023/12/03 10:30:36;;;;;;;34.85;20.73;;;;;;;;;;5010369;28;20045;-59
2023/12/03 10:33:04;;;;;;;38.63;21.00;;;;;;;;;;5008509;28;20144;-60
2023/12/03 10:35:33;;;;;;;33.67;18.58;;;;;;;;;;5009312;28;20159;-59
2023/12/03 10:38:00;;;;;;;34.30;20.08;;;;;;;;;;5010442;28;20037;-60
2023/12/03 10:40:26;;;;;;;35.00;20.60;;;;;;;;;;5011095;28;20034;-60
2023/12/03 10:42:52;;;;;;;34.60;19.05;;;;;;;;;;5010310;28;20041;-60
2023/12/03 10:45:18;;;;;;;34.63;20.83;;;;;;;;;;5011442;28;20036;-60
2023/12/03 10:47:45;;;;;;;33.60;20.40;;;;;;;;;;5010516;28;20041;-60
2023/12/03 10:50:11;;;;;;;33.75;20.23;;;;;;;;;;5009290;28;20080;-60
2023/12/03 10:52:38;;;;;;;35.42;20.25;;;;;;;;;;5010830;28;20072;-59
2023/12/03 10:55:05;;;;;;;33.88;20.95;;;;;;;;;;5009383;28;20038;-59
2023/12/03 10:57:32;;;;;;;34.42;20.40;;;;;;;;;;5007701;28;20030;-60
2023/12/03 11:00:02;;;;;;;32.60;19.58;;;;;;;;;;5006025;28;20061;-60
2023/12/03 11:02:32;;;;;;;33.80;20.35;;;;;;;;;;5009315;28;20035;-61
2023/12/03 11:05:05;;;;;;;33.92;20.45;;;;;;;;;;5006799;28;20025;-60
2023/12/03 11:07:33;;;;;;;32.75;19.70;;;;;;;;;;5012442;28;20046;-60
2023/12/03 11:10:00;;;;;;;31.67;20.27;;;;;;;;;;5009387;28;20152;-59
2023/12/03 11:12:26;;;;;;;35.40;20.88;;;;;;;;;;5010179;28;20079;-60
2023/12/03 11:14:53;;;;;;;37.30;22.23;;;;;;;;;;5000069;28;20072;-60
2023/12/03 11:17:35;;;;;;;30.55;18.48;;;;;;;;;;5000328;28;20059;-60
2023/12/03 11:20:16;;;;;;;31.88;19.63;;;;;;;;;;5000195;28;20714;-60
2023/12/03 11:23:01;;;;;;;31.35;19.73;;;;;;;;;;5000015;28;20030;-60
2023/12/03 11:25:32;;;;;;;33.25;20.42;;;;;;;;;;5001271;28;20538;-59
2023/12/03 11:27:58;;;;;;;32.63;19.95;;;;;;;;;;5001879;28;20062;-60
2023/12/03 11:30:37;;;;;;;33.15;20.67;;;;;;;;;;5000408;28;20037;-60
2023/12/03 11:33:07;;;;;;;32.83;21.02;;;;;;;;;;4999419;28;20697;-60
2023/12/03 11:35:34;;;;;;;31.95;19.63;;;;;;;;;;5001938;28;20036;-60
2023/12/03 11:38:01;;;;;;;31.05;19.83;;;;;;;;;;4980935;28;20029;-60
2023/12/03 11:40:34;;;;;;;32.58;20.77;;;;;;;;;;5001175;28;20764;-60
2023/12/03 11:43:00;;;;;;;29.52;17.95;;;;;;;;;;4983842;28;20875;-60
2023/12/03 11:45:27;;;;;;;32.08;19.20;;;;;;;;;;5002750;28;21768;-60
2023/12/03 11:48:02;;;;;;;30.35;18.70;;;;;;;;;;5002682;28;20044;-60
2023/12/03 11:50:29;;;;;;;31.77;19.08;;;;;;;;;;5004067;28;20042;-60
2023/12/03 11:52:55;;;;;;;30.90;19.20;;;;;;;;;;5002407;28;20048;-61
2023/12/03 11:55:23;;;;;;;29.50;18.13;;;;;;;;;;5002024;28;20041;-60
2023/12/03 11:57:49;;;;;;;28.70;17.05;;;;;;;;;;5001879;28;20041;-60
2023/12/03 12:00:15;;;;;;;26.00;16.83;;;;;;;;;;5001829;28;20053;-60
2023/12/03 12:02:41;;;;;;;27.52;16.15;;;;;;;;;;5002646;28;20091;-60
2023/12/03 12:05:08;;;;;;;27.00;17.17;;;;;;;;;;5000941;28;20790;-60
2023/12/03 12:07:34;;;;;;;26.70;17.50;;;;;;;;;;5001732;28;20037;-60
2023/12/03 12:10:00;;;;;;;28.15;16.40;;;;;;;;;;4987489;28;20041;-60
2023/12/03 12:12:26;;;;;;;28.63;16.45;;;;;;;;;;5000577;28;20053;-60
2023/12/03 12:14:52;;;;;;;27.48;16.92;;;;;;;;;;5000681;28;20037;-60
2023/12/03 12:17:18;;;;;;;32.13;18.15;;;;;;;;;;5001229;28;21276;-60
2023/12/03 12:19:51;;;;;;;27.95;17.75;;;;;;;;;;5001647;28;20216;-60
2023/12/03 12:22:17;;;;;;;26.17;16.50;;;;;;;;;;5000111;28;20119;-60
2023/12/03 12:24:46;;;;;;;31.85;16.85;;;;;;;;;;5002092;28;20028;-59
2023/12/03 12:27:13;;;;;;;29.83;17.55;;;;;;;;;;4998855;28;20041;-60
2023/12/03 12:29:39;;;;;;;27.10;17.02;;;;;;;;;;5002576;28;20040;-60
2023/12/03 12:32:05;;;;;;;27.50;17.65;;;;;;;;;;4999203;28;20035;-60
2023/12/03 12:34:34;;;;;;;27.15;16.83;;;;;;;;;;4999628;28;20655;-60
2023/12/03 12:37:05;;;;;;;26.42;15.60;;;;;;;;;;4990656;28;20033;-60
2023/12/03 12:39:32;;;;;;;27.13;16.45;;;;;;;;;;4985164;28;20029;-60
2023/12/03 12:41:58;;;;;;;26.50;16.92;;;;;;;;;;4993031;28;20068;-60
2023/12/03 12:44:38;;;;;;;29.70;16.15;;;;;;;;;;4995442;28;21822;-60
2023/12/03 12:47:04;;;;;;;28.05;15.25;;;;;;;;;;4994144;28;20041;-60
2023/12/03 12:49:30;;;;;;;31.63;16.42;;;;;;;;;;4994039;28;20929;-60
2023/12/03 12:52:12;;;;;;;27.38;15.80;;;;;;;;;;4999256;28;20046;-60
2023/12/03 12:54:46;;;;;;;29.02;16.35;;;;;;;;;;4998398;28;22432;-60
2023/12/03 12:57:12;;;;;;;32.40;17.05;;;;;;;;;;4986555;28;20088;-60
2023/12/03 12:59:39;;;;;;;30.73;16.88;;;;;;;;;;4998906;28;20029;-60
2023/12/03 13:02:05;;;;;;;28.88;17.30;;;;;;;;;;4994735;28;20036;-60
2023/12/03 13:04:31;;;;;;;30.00;17.58;;;;;;;;;;4997091;28;20040;-60
2023/12/03 13:06:57;;;;;;;32.63;19.48;;;;;;;;;;4994927;28;20112;-60
2023/12/03 13:09:23;;;;;;;29.05;18.52;;;;;;;;;;5002103;28;20060;-60
2023/12/03 13:11:49;;;;;;;33.75;19.88;;;;;;;;;;4993127;28;20107;-59
2023/12/03 13:14:15;;;;;;;34.58;19.38;;;;;;;;;;4996308;28;20617;-59
2023/12/03 13:16:42;;;;;;;27.77;17.15;;;;;;;;;;4996249;28;20089;-59
2023/12/03 13:19:08;;;;;;;30.38;17.67;;;;;;;;;;4995447;28;20385;-59
2023/12/03 13:21:34;;;;;;;27.70;16.00;;;;;;;;;;4995394;28;20030;-59
2023/12/03 13:24:00;;;;;;;28.40;16.65;;;;;;;;;;5001100;28;20029;-59
2023/12/03 13:26:26;;;;;;;32.60;17.90;;;;;;;;;;4999229;28;20103;-59
2023/12/03 13:28:52;;;;;;;26.65;15.95;;;;;;;;;;4999850;28;20037;-59
2023/12/03 13:31:18;;;;;;;28.92;16.73;;;;;;;;;;4999111;28;20139;-59
2023/12/03 13:33:44;;;;;;;31.27;18.70;;;;;;;;;;4995874;28;20049;-59
2023/12/03 13:36:10;;;;;;;33.10;19.77;;;;;;;;;;5001432;28;20052;-59
2023/12/03 13:38:38;;;;;;;29.30;17.42;;;;;;;;;;5001219;28;20150;-59
2023/12/03 13:41:04;;;;;;;32.55;17.90;;;;;;;;;;5002655;28;20036;-59
2023/12/03 13:43:30;;;;;;;29.75;17.88;;;;;;;;;;5001771;28;20036;-59
2023/12/03 13:45:56;;;;;;;31.15;17.73;;;;;;;;;;5007758;28;20036;-59
2023/12/03 13:48:22;;;;;;;30.95;17.98;;;;;;;;;;5008206;28;20060;-60
2023/12/03 13:50:48;;;;;;;29.92;18.20;;;;;;;;;;5010204;28;20472;-59
2023/12/03 13:53:14;;;;;;;32.45;18.63;;;;;;;;;;5011026;28;20029;-59
2023/12/03 13:55:41;;;;;;;32.40;17.58;;;;;;;;;;5011269;28;20572;-59
2023/12/03 13:58:07;;;;;;;32.75;18.70;;;;;;;;;;5013514;28;20040;-59
2023/12/03 14:00:33;;;;;;;36.90;20.00;;;;;;;;;;5012036;28;20531;-59
2023/12/03 14:02:59;;;;;;;31.73;17.95;;;;;;;;;;5012145;28;20973;-59
2023/12/03 14:05:25;;;;;;;32.97;19.30;;;;;;;;;;5012345;28;20036;-59
2023/12/03 14:07:55;;;;;;;31.25;18.33;;;;;;;;;;5012957;28;20037;-59
2023/12/03 14:10:21;;;;;;;33.00;18.48;;;;;;;;;;5013422;28;20032;-59
2023/12/03 14:12:47;;;;;;;32.70;18.90;;;;;;;;;;5012893;28;20029;-59
2023/12/03 14:15:13;;;;;;;32.55;17.85;;;;;;;;;;5013049;28;20045;-59
2023/12/03 14:17:41;;;;;;;32.97;19.00;;;;;;;;;;5010965;28;20127;-59
2023/12/03 14:20:08;;;;;;;38.10;19.45;;;;;;;;;;5012294;28;20187;-59